Time;durP1;ratioP1;P1;durP2;ratioP2;P2;SDS_P1;SDS_P2;PMS_P1;PMS_P2;Temp;Humidity;BMP_temperature;BMP_pressure;BME280_temperature;BME280_humidity;BME280_pressure;Samples;Min_cycle;Max_cycle;Signal;HPM_P1;HPM_P2
2022/06/10 00:01:35;;;;;;;;;;;15.30;50.00;;;;;;4096553;28;20567;-34
2022/06/10 00:03:37;;;;;;;;;;;15.30;50.10;;;;;;4072016;28;19969;-34
2022/06/10 00:05:39;;;;;;;;;;;15.30;50.10;;;;;;4093418;28;19929;-34
2022/06/10 00:07:41;;;;;;;;;;;15.20;50.20;;;;;;4096680;28;19936;-34
2022/06/10 00:09:42;;;;;;;;;;;15.20;50.80;;;;;;4091675;28;19972;-35
2022/06/10 00:11:44;;;;;;;;;;;15.20;50.20;;;;;;4073857;28;19961;-35
2022/06/10 00:13:47;;;;;;;;;;;15.20;50.20;;;;;;4099834;28;19925;-34
2022/06/10 00:15:55;;;;;;;;;;;15.20;50.20;;;;;;4091311;28;20168;-36
2022/06/10 00:17:56;;;;;;;;;;;15.20;50.30;;;;;;4091667;28;19926;-34
2022/06/10 00:19:58;;;;;;;;;;;15.20;50.30;;;;;;4090544;28;20521;-34
2022/06/10 00:22:01;;;;;;;;;;;15.20;50.40;;;;;;4079934;28;19925;-36
2022/06/10 00:24:03;;;;;;;;;;;15.10;50.40;;;;;;4090170;28;20331;-35
2022/06/10 00:26:06;;;;;;;;;;;15.10;50.40;;;;;;4070880;28;20258;-34
2022/06/10 00:28:07;;;;;;;;;;;15.10;50.40;;;;;;4100058;28;20138;-35
2022/06/10 00:30:09;;;;;;;;;;;15.10;50.40;;;;;;4093572;28;21079;-35
2022/06/10 00:32:11;;;;;;;;;;;15.10;50.50;;;;;;4093223;28;19988;-34
2022/06/10 00:34:12;;;;;;;;;;;15.10;50.40;;;;;;4097855;28;20028;-34
2022/06/10 00:36:15;;;;;;;;;;;15.10;50.40;;;;;;4090838;28;19929;-35
2022/06/10 00:38:17;;;;;;;;;;;15.10;50.50;;;;;;4073343;28;19925;-35
2022/06/10 00:40:22;;;;;;;;;;;15.10;50.50;;;;;;4091461;28;19929;-34
2022/06/10 00:42:23;;;;;;;;;;;15.00;50.40;;;;;;4099997;28;20032;-34
2022/06/10 00:44:40;;;;;;;;;;;15.10;50.50;;;;;;4090485;28;20003;-34
2022/06/10 00:46:42;;;;;;;;;;;15.10;50.60;;;;;;4090937;28;21302;-34
2022/06/10 00:48:54;;;;;;;;;;;15.00;50.50;;;;;;4092991;28;19933;-34
2022/06/10 00:50:58;;;;;;;;;;;15.00;50.60;;;;;;4089312;28;19977;-34
2022/06/10 00:53:03;;;;;;;;;;;15.00;50.60;;;;;;4054889;28;20114;-35
2022/06/10 00:55:06;;;;;;;;;;;15.00;50.60;;;;;;4090199;28;19926;-35
2022/06/10 00:57:08;;;;;;;;;;;15.00;50.60;;;;;;4072514;28;19937;-35
2022/06/10 00:59:29;;;;;;;;;;;15.00;51.40;;;;;;4089050;28;20138;-36
2022/06/10 01:01:31;;;;;;;;;;;15.00;50.60;;;;;;4084608;28;19960;-35
2022/06/10 01:03:33;;;;;;;;;;;15.00;50.60;;;;;;4066702;28;20009;-36
2022/06/10 01:05:35;;;;;;;;;;;15.00;50.70;;;;;;4084191;28;19929;-35
2022/06/10 01:07:38;;;;;;;;;;;15.00;50.60;;;;;;4098939;28;20639;-34
2022/06/10 01:09:40;;;;;;;;;;;15.00;50.50;;;;;;4092575;28;20389;-35
2022/06/10 01:11:55;;;;;;;;;;;15.00;50.50;;;;;;4100741;28;20034;-34
2022/06/10 01:13:57;;;;;;;;;;;15.00;50.60;;;;;;4094165;28;19925;-35
2022/06/10 01:15:58;;;;;;;;;;;15.00;50.70;;;;;;4107576;28;19929;-35
2022/06/10 01:18:10;;;;;;;;;;;15.00;50.70;;;;;;4097608;28;19932;-35
2022/06/10 01:20:15;;;;;;;;;;;15.00;50.80;;;;;;4097828;28;20300;-35
2022/06/10 01:22:42;;;;;;;;;;;15.00;50.80;;;;;;4098838;28;19926;-35
2022/06/10 01:24:46;;;;;;;;;;;15.00;50.90;;;;;;4101269;28;19933;-36
2022/06/10 01:29:34;;;;;;;;;;;15.00;51.10;;;;;;4096901;28;19929;-37
2022/06/10 01:31:43;;;;;;;;;;;15.00;51.20;;;;;;4098363;28;20466;-35
2022/06/10 01:33:58;;;;;;;;;;;15.00;51.40;;;;;;4099146;28;20405;-35
2022/06/10 01:36:13;;;;;;;;;;;15.00;51.50;;;;;;4098421;28;19948;-35
2022/06/10 01:38:20;;;;;;;;;;;15.00;51.40;;;;;;4097072;28;19937;-35
2022/06/10 01:40:37;;;;;;;;;;;15.10;51.40;;;;;;4099879;28;20051;-35
2022/06/10 01:42:38;;;;;;;;;;;15.10;51.60;;;;;;4097046;28;19929;-36
2022/06/10 01:44:40;;;;;;;;;;;15.10;51.60;;;;;;4101956;28;20349;-36
2022/06/10 01:46:53;;;;;;;;;;;15.10;51.70;;;;;;4097435;28;20911;-36
2022/06/10 01:49:06;;;;;;;;;;;15.10;51.70;;;;;;4098697;28;21230;-36
2022/06/10 01:51:16;;;;;;;;;;;15.10;51.70;;;;;;4096389;28;20209;-36
2022/06/10 01:53:24;;;;;;;;;;;15.10;51.70;;;;;;4094206;28;20607;-35
2022/06/10 01:55:28;;;;;;;;;;;15.10;51.80;;;;;;4096773;28;20009;-35
2022/06/10 01:57:50;;;;;;;;;;;15.10;51.90;;;;;;4095044;28;19939;-36
2022/06/10 01:59:57;;;;;;;;;;;15.10;52.00;;;;;;4099420;28;20008;-35
2022/06/10 02:02:07;;;;;;;;;;;15.10;52.10;;;;;;4096202;28;20423;-37
2022/06/10 02:04:14;;;;;;;;;;;15.20;52.10;;;;;;4095457;28;19968;-35
2022/06/10 02:06:24;;;;;;;;;;;15.20;52.10;;;;;;4090962;28;20344;-35
2022/06/10 02:08:29;;;;;;;;;;;15.20;52.20;;;;;;4092223;28;20039;-36
2022/06/10 02:10:37;;;;;;;;;;;15.20;52.20;;;;;;4095205;28;19947;-36
2022/06/10 02:12:44;;;;;;;;;;;15.20;52.10;;;;;;4091260;28;21270;-36
2022/06/10 02:14:59;;;;;;;;;;;15.30;52.20;;;;;;4087572;28;19933;-37
2022/06/10 02:17:01;;;;;;;;;;;15.30;52.10;;;;;;4086408;28;19935;-35
2022/06/10 02:19:07;;;;;;;;;;;15.30;52.20;;;;;;4087863;28;19929;-34
2022/06/10 02:21:18;;;;;;;;;;;15.30;52.30;;;;;;4085062;28;20359;-35
2022/06/10 02:23:21;;;;;;;;;;;15.30;52.30;;;;;;4091146;28;20016;-35
2022/06/10 02:25:27;;;;;;;;;;;15.30;52.20;;;;;;4095085;28;20411;-35
2022/06/10 02:27:31;;;;;;;;;;;15.30;52.20;;;;;;4078607;28;20535;-36
2022/06/10 02:29:39;;;;;;;;;;;15.40;52.30;;;;;;4086572;28;19929;-36
2022/06/10 02:31:42;;;;;;;;;;;15.40;52.30;;;;;;4092957;28;20787;-36
2022/06/10 02:33:44;;;;;;;;;;;15.40;52.40;;;;;;4096779;28;19936;-37
2022/06/10 02:35:51;;;;;;;;;;;15.40;52.30;;;;;;4093203;28;20961;-37
2022/06/10 02:38:05;;;;;;;;;;;15.40;52.40;;;;;;4072703;28;20268;-36
2022/06/10 02:40:16;;;;;;;;;;;15.40;52.30;;;;;;4087385;28;20357;-36
2022/06/10 02:42:25;;;;;;;;;;;15.40;52.20;;;;;;4093078;28;20437;-35
2022/06/10 02:44:40;;;;;;;;;;;15.40;52.20;;;;;;4092960;28;19953;-35
2022/06/10 02:46:57;;;;;;;;;;;15.50;52.20;;;;;;4090142;28;20031;-35
2022/06/10 02:49:12;;;;;;;;;;;15.50;52.30;;;;;;4093680;28;20059;-35
2022/06/10 02:51:15;;;;;;;;;;;15.50;52.20;;;;;;4077710;28;20481;-35
2022/06/10 02:53:17;;;;;;;;;;;15.50;52.20;;;;;;4087185;28;19932;-36
2022/06/10 02:55:23;;;;;;;;;;;15.50;52.10;;;;;;4089539;28;20418;-35
2022/06/10 03:01:11;;;;;;;;;;;15.60;52.10;;;;;;4095198;28;20340;-36
2022/06/10 03:02:08;;;;;;;;;;;15.60;51.80;;;;;;4090727;28;20539;-35
2022/06/10 03:04:16;;;;;;;;;;;15.60;51.80;;;;;;4084139;28;20035;-35
2022/06/10 03:06:25;;;;;;;;;;;15.60;51.70;;;;;;4100211;28;20050;-35
2022/06/10 03:08:35;;;;;;;;;;;15.70;51.80;;;;;;4102300;28;19937;-36
2022/06/10 03:10:43;;;;;;;;;;;15.70;51.70;;;;;;4106492;28;20766;-37
2022/06/10 03:13:14;;;;;;;;;;;15.70;51.70;;;;;;4104651;28;19937;-36
2022/06/10 03:15:34;;;;;;;;;;;15.70;51.70;;;;;;4095309;28;20782;-37
2022/06/10 03:17:47;;;;;;;;;;;15.70;51.70;;;;;;4099732;28;20523;-35
2022/06/10 03:20:04;;;;;;;;;;;15.70;51.70;;;;;;4102484;28;20386;-34
2022/06/10 03:22:20;;;;;;;;;;;15.70;51.60;;;;;;4106685;28;21106;-35
2022/06/10 03:24:23;;;;;;;;;;;15.70;51.60;;;;;;4109391;28;20535;-35
2022/06/10 03:26:40;;;;;;;;;;;15.80;51.50;;;;;;4100882;28;19933;-35
2022/06/10 03:28:41;;;;;;;;;;;15.80;51.40;;;;;;4106964;28;20942;-35
2022/06/10 03:31:03;;;;;;;;;;;15.90;51.40;;;;;;4095033;28;19968;-35
2022/06/10 03:33:12;;;;;;;;;;;15.90;51.30;;;;;;4104728;28;19972;-35
2022/06/10 03:35:23;;;;;;;;;;;15.90;51.30;;;;;;4100846;28;20689;-36
2022/06/10 03:37:25;;;;;;;;;;;16.00;51.20;;;;;;4101953;28;20425;-36
2022/06/10 03:39:27;;;;;;;;;;;16.00;51.30;;;;;;4096091;28;20019;-35
2022/06/10 03:41:41;;;;;;;;;;;16.00;51.10;;;;;;4106700;28;20020;-36
2022/06/10 03:43:42;;;;;;;;;;;16.10;51.10;;;;;;4102243;28;19929;-35
2022/06/10 03:45:51;;;;;;;;;;;16.10;51.10;;;;;;4103841;28;20579;-36
2022/06/10 03:47:53;;;;;;;;;;;16.20;51.10;;;;;;4100587;28;20063;-36
2022/06/10 03:50:01;;;;;;;;;;;16.20;51.00;;;;;;4096024;28;20425;-36
2022/06/10 03:52:03;;;;;;;;;;;16.20;50.90;;;;;;4099150;28;20413;-36
2022/06/10 03:54:04;;;;;;;;;;;16.30;50.90;;;;;;4106294;28;19929;-36
2022/06/10 03:56:06;;;;;;;;;;;16.30;50.80;;;;;;4099421;28;20305;-36
2022/06/10 03:58:09;;;;;;;;;;;16.30;50.80;;;;;;4101058;28;19925;-36
2022/06/10 04:00:15;;;;;;;;;;;16.40;50.70;;;;;;4106028;28;19936;-35
2022/06/10 04:02:17;;;;;;;;;;;16.50;50.70;;;;;;4107301;28;20241;-36
2022/06/10 04:04:19;;;;;;;;;;;16.50;50.50;;;;;;4097087;28;19937;-34
2022/06/10 04:06:21;;;;;;;;;;;16.60;50.50;;;;;;4090305;28;19992;-36
2022/06/10 04:08:22;;;;;;;;;;;16.60;50.40;;;;;;4093312;28;20391;-36
2022/06/10 04:10:26;;;;;;;;;;;16.60;50.30;;;;;;4089284;28;20031;-36
2022/06/10 04:12:28;;;;;;;;;;;16.70;50.20;;;;;;4088892;28;20392;-35
2022/06/10 04:14:29;;;;;;;;;;;16.70;50.10;;;;;;4094414;28;20464;-34
2022/06/10 04:16:33;;;;;;;;;;;16.80;50.00;;;;;;4087380;28;19929;-36
2022/06/10 04:18:34;;;;;;;;;;;16.80;49.80;;;;;;4087091;28;19964;-36
2022/06/10 04:20:37;;;;;;;;;;;16.90;49.80;;;;;;4077139;28;19930;-35
2022/06/10 04:22:38;;;;;;;;;;;16.90;49.70;;;;;;4095558;28;19939;-36
2022/06/10 04:24:40;;;;;;;;;;;17.00;49.50;;;;;;4091654;28;19964;-35
2022/06/10 04:26:42;;;;;;;;;;;17.00;49.40;;;;;;4090910;28;20484;-35
2022/06/10 04:28:43;;;;;;;;;;;17.10;49.40;;;;;;4078466;28;20043;-36
2022/06/10 04:30:46;;;;;;;;;;;17.20;49.30;;;;;;4092534;28;20002;-36
2022/06/10 04:32:48;;;;;;;;;;;17.20;49.10;;;;;;4093933;28;20015;-35
2022/06/10 04:34:50;;;;;;;;;;;17.20;49.20;;;;;;4101540;28;20269;-35
2022/06/10 04:36:51;;;;;;;;;;;17.30;49.10;;;;;;4091756;28;20346;-36
2022/06/10 04:38:53;;;;;;;;;;;17.30;49.00;;;;;;4094759;28;19987;-37
2022/06/10 04:40:55;;;;;;;;;;;17.40;49.00;;;;;;4097130;28;20028;-37
2022/06/10 04:42:56;;;;;;;;;;;17.40;48.80;;;;;;4086800;28;21831;-36
2022/06/10 04:44:58;;;;;;;;;;;17.40;48.80;;;;;;4084159;28;20783;-36
2022/06/10 04:47:00;;;;;;;;;;;17.50;48.80;;;;;;4095809;28;20212;-35
2022/06/10 04:49:02;;;;;;;;;;;17.50;48.80;;;;;;4093138;28;20777;-35
2022/06/10 04:51:03;;;;;;;;;;;17.60;48.80;;;;;;4089314;28;19929;-36
2022/06/10 04:53:05;;;;;;;;;;;17.60;48.70;;;;;;4092668;28;19929;-36
2022/06/10 04:55:08;;;;;;;;;;;17.60;48.60;;;;;;4090200;28;19937;-36
2022/06/10 04:57:10;;;;;;;;;;;17.70;48.60;;;;;;4088261;28;19925;-35
2022/06/10 04:59:12;;;;;;;;;;;17.70;48.50;;;;;;4089395;28;19925;-35
2022/06/10 05:01:13;;;;;;;;;;;17.80;48.50;;;;;;4098071;28;20434;-36
2022/06/10 05:03:15;;;;;;;;;;;17.80;48.40;;;;;;4088177;28;20035;-35
2022/06/10 05:05:17;;;;;;;;;;;17.80;48.40;;;;;;4090245;28;19929;-37
2022/06/10 05:07:19;;;;;;;;;;;17.80;48.40;;;;;;4085753;28;19935;-37
2022/06/10 05:09:21;;;;;;;;;;;17.80;48.40;;;;;;4081591;28;20031;-35
2022/06/10 05:11:22;;;;;;;;;;;17.80;48.30;;;;;;4084119;28;19964;-34
2022/06/10 05:13:24;;;;;;;;;;;17.80;48.30;;;;;;4091885;28;19936;-36
2022/06/10 05:15:28;;;;;;;;;;;17.80;49.00;;;;;;4086119;28;20593;-35
2022/06/10 05:17:30;;;;;;;;;;;17.80;48.40;;;;;;4083265;28;20028;-39
2022/06/10 05:19:31;;;;;;;;;;;17.80;48.60;;;;;;4088726;28;19929;-36
2022/06/10 05:21:33;;;;;;;;;;;17.70;48.60;;;;;;4087790;28;20230;-36
2022/06/10 05:23:34;;;;;;;;;;;17.70;48.50;;;;;;4086818;28;19930;-37
2022/06/10 05:25:36;;;;;;;;;;;17.70;48.60;;;;;;4092449;28;19937;-36
2022/06/10 05:27:38;;;;;;;;;;;17.70;48.60;;;;;;4088234;28;19980;-36
2022/06/10 05:29:40;;;;;;;;;;;17.70;48.60;;;;;;4086731;28;19925;-35
2022/06/10 05:31:41;;;;;;;;;;;17.60;48.70;;;;;;4088344;28;20515;-36
2022/06/10 05:36:03;;;;;;;;;;;17.60;48.90;;;;;;4074392;28;19937;-35
2022/06/10 05:38:05;;;;;;;;;;;17.60;48.90;;;;;;4092003;28;19964;-36
2022/06/10 05:40:07;;;;;;;;;;;17.60;48.90;;;;;;4085118;28;19944;-36
2022/06/10 05:42:09;;;;;;;;;;;17.60;48.90;;;;;;4073419;28;20043;-35
2022/06/10 05:44:11;;;;;;;;;;;17.50;48.90;;;;;;4094441;28;20367;-36
2022/06/10 05:46:12;;;;;;;;;;;17.50;49.00;;;;;;4088621;28;20052;-36
2022/06/10 05:48:14;;;;;;;;;;;17.50;49.00;;;;;;4084125;28;19926;-36
2022/06/10 05:50:21;;;;;;;;;;;17.50;49.00;;;;;;4094290;28;20480;-36
2022/06/10 05:52:25;;;;;;;;;;;17.50;49.10;;;;;;4089750;28;19969;-37
2022/06/10 05:54:26;;;;;;;;;;;17.50;49.10;;;;;;4085608;28;20452;-36
2022/06/10 05:56:28;;;;;;;;;;;17.50;49.20;;;;;;4087821;28;20540;-36
2022/06/10 05:58:30;;;;;;;;;;;17.50;49.30;;;;;;4094175;28;19929;-36
2022/06/10 06:00:32;;;;;;;;;;;17.50;49.20;;;;;;4090529;28;19936;-37
2022/06/10 06:02:34;;;;;;;;;;;17.50;49.30;;;;;;4089621;28;19925;-36
2022/06/10 06:04:35;;;;;;;;;;;17.40;49.20;;;;;;4095656;28;19936;-37
2022/06/10 06:06:37;;;;;;;;;;;17.50;49.30;;;;;;4098684;28;20466;-36
2022/06/10 06:08:39;;;;;;;;;;;17.40;49.30;;;;;;4098908;28;20059;-35
2022/06/10 06:10:40;;;;;;;;;;;17.40;49.30;;;;;;4107366;28;20266;-36
2022/06/10 06:12:42;;;;;;;;;;;17.40;49.40;;;;;;4098194;28;20500;-36
2022/06/10 06:14:44;;;;;;;;;;;17.40;49.50;;;;;;4100279;28;20125;-36
2022/06/10 06:16:47;;;;;;;;;;;17.40;49.50;;;;;;4104472;28;19929;-36
2022/06/10 06:18:50;;;;;;;;;;;17.40;49.60;;;;;;4103285;28;20290;-36
2022/06/10 06:20:51;;;;;;;;;;;17.40;49.50;;;;;;4100599;28;19925;-35
2022/06/10 06:22:53;;;;;;;;;;;17.40;49.50;;;;;;4102704;28;20071;-35
2022/06/10 06:24:55;;;;;;;;;;;17.40;49.60;;;;;;4107012;28;19932;-35
2022/06/10 06:26:57;;;;;;;;;;;17.40;49.50;;;;;;4101024;28;19928;-37
2022/06/10 06:28:58;;;;;;;;;;;17.50;49.60;;;;;;4099384;28;19925;-35
2022/06/10 06:31:00;;;;;;;;;;;17.80;49.00;;;;;;4105776;28;20241;-36
2022/06/10 06:33:03;;;;;;;;;;;18.50;47.60;;;;;;4098087;28;19964;-35
2022/06/10 06:35:05;;;;;;;;;;;19.20;45.90;;;;;;4099172;28;19956;-34
2022/06/10 06:37:09;;;;;;;;;;;19.20;45.40;;;;;;4104387;28;20304;-35
2022/06/10 06:39:11;;;;;;;;;;;18.90;45.80;;;;;;4099531;28;20071;-37
2022/06/10 06:41:13;;;;;;;;;;;18.60;46.60;;;;;;4101278;28;19929;-35
2022/06/10 06:43:15;;;;;;;;;;;18.30;47.10;;;;;;4101339;28;19964;-34
2022/06/10 06:45:17;;;;;;;;;;;18.10;47.70;;;;;;4106431;28;20245;-35
2022/06/10 06:47:19;;;;;;;;;;;17.90;48.00;;;;;;4102104;28;19970;-36
2022/06/10 06:49:23;;;;;;;;;;;17.80;48.40;;;;;;4098498;28;20035;-35
2022/06/10 06:51:25;;;;;;;;;;;17.70;48.80;;;;;;4109199;28;19984;-35
2022/06/10 06:53:27;;;;;;;;;;;17.60;49.00;;;;;;4098896;28;20604;-36
2022/06/10 06:55:28;;;;;;;;;;;17.50;49.10;;;;;;4100726;28;19997;-38
2022/06/10 06:57:30;;;;;;;;;;;17.40;49.30;;;;;;4108098;28;19959;-38
2022/06/10 06:59:32;;;;;;;;;;;17.40;49.50;;;;;;4103171;28;19933;-36
2022/06/10 07:01:35;;;;;;;;;;;17.40;49.60;;;;;;4094669;28;19924;-37
2022/06/10 07:03:37;;;;;;;;;;;17.30;49.70;;;;;;4102609;28;20307;-37
2022/06/10 07:05:38;;;;;;;;;;;17.30;49.80;;;;;;4102351;28;20299;-45
2022/06/10 07:07:41;;;;;;;;;;;17.30;49.90;;;;;;4096387;28;20008;-36
2022/06/10 07:09:42;;;;;;;;;;;17.20;49.90;;;;;;4099455;28;20422;-36
2022/06/10 07:11:44;;;;;;;;;;;17.20;50.10;;;;;;4104488;28;20501;-35
2022/06/10 07:13:46;;;;;;;;;;;17.20;50.10;;;;;;4095769;28;19991;-36
2022/06/10 07:15:48;;;;;;;;;;;17.20;50.10;;;;;;4094526;28;19937;-36
2022/06/10 07:17:50;;;;;;;;;;;17.10;50.10;;;;;;4099878;28;19924;-36
2022/06/10 07:19:54;;;;;;;;;;;17.10;50.20;;;;;;4095813;28;20457;-36
2022/06/10 07:21:55;;;;;;;;;;;17.10;50.20;;;;;;4092625;28;19929;-36
2022/06/10 07:23:57;;;;;;;;;;;17.10;50.20;;;;;;4106772;28;20369;-36
2022/06/10 07:25:59;;;;;;;;;;;17.10;50.30;;;;;;4096247;28;21364;-37
2022/06/10 07:28:01;;;;;;;;;;;17.00;50.30;;;;;;4110540;28;20394;-36
2022/06/10 07:30:04;;;;;;;;;;;17.00;50.30;;;;;;4103737;28;19937;-36
2022/06/10 07:32:05;;;;;;;;;;;17.00;50.40;;;;;;4102731;28;19935;-36
2022/06/10 07:34:08;;;;;;;;;;;17.00;50.50;;;;;;4096719;28;19959;-37
2022/06/10 07:36:10;;;;;;;;;;;17.00;50.40;;;;;;4097901;28;20256;-37
2022/06/10 07:38:12;;;;;;;;;;;17.00;50.60;;;;;;4099778;28;20245;-35
2022/06/10 07:42:53;;;;;;;;;;;17.00;50.60;;;;;;4095949;28;19929;-41
2022/06/10 07:44:54;;;;;;;;;;;16.90;50.60;;;;;;4099427;28;20038;-36
2022/06/10 07:46:57;;;;;;;;;;;16.90;50.60;;;;;;4100707;28;21265;-36
2022/06/10 07:48:59;;;;;;;;;;;16.90;50.60;;;;;;4092215;28;19925;-36
2022/06/10 07:51:00;;;;;;;;;;;16.90;50.60;;;;;;4100283;28;20406;-36
2022/06/10 07:53:02;;;;;;;;;;;16.90;50.60;;;;;;4103492;28;20791;-36
2022/06/10 07:55:04;;;;;;;;;;;16.90;51.30;;;;;;4093179;28;20032;-36
2022/06/10 07:57:07;;;;;;;;;;;16.90;50.60;;;;;;4094702;28;19925;-34
2022/06/10 07:59:08;;;;;;;;;;;16.90;50.70;;;;;;4104628;28;20788;-36
2022/06/10 08:01:10;;;;;;;;;;;16.90;50.70;;;;;;4093175;28;19932;-36
2022/06/10 08:03:13;;;;;;;;;;;16.90;50.70;;;;;;4093357;28;20004;-36
2022/06/10 08:05:16;;;;;;;;;;;16.90;50.70;;;;;;4100377;28;19928;-37
2022/06/10 08:07:18;;;;;;;;;;;16.80;50.70;;;;;;4096846;28;19929;-36
2022/06/10 08:09:21;;;;;;;;;;;16.80;50.70;;;;;;4095759;28;20782;-37
2022/06/10 08:11:23;;;;;;;;;;;16.80;50.70;;;;;;4097840;28;19930;-36
2022/06/10 08:13:26;;;;;;;;;;;16.80;50.70;;;;;;4102412;28;19929;-36
2022/06/10 08:15:28;;;;;;;;;;;16.80;50.70;;;;;;4095888;28;19951;-35
2022/06/10 08:17:30;;;;;;;;;;;16.80;50.70;;;;;;4079020;28;20005;-35
2022/06/10 08:19:32;;;;;;;;;;;16.80;51.30;;;;;;4104149;28;20011;-35
2022/06/10 08:23:55;;;;;;;;;;;16.80;50.90;;;;;;4104699;28;20363;-35
2022/06/10 08:25:58;;;;;;;;;;;16.80;50.80;;;;;;4094802;28;19971;-35
2022/06/10 08:28:00;;;;;;;;;;;16.80;50.90;;;;;;4092941;28;19952;-36
2022/06/10 08:30:04;;;;;;;;;;;16.80;50.90;;;;;;4104502;28;20420;-37
2022/06/10 08:32:05;;;;;;;;;;;16.80;51.00;;;;;;4097619;28;20831;-35
2022/06/10 08:34:07;;;;;;;;;;;16.80;51.10;;;;;;4094207;28;20145;-35
2022/06/10 08:36:09;;;;;;;;;;;16.70;51.00;;;;;;4101098;28;20035;-35
2022/06/10 08:38:12;;;;;;;;;;;16.70;51.00;;;;;;4101729;28;21055;-36
2022/06/10 08:40:33;;;;;;;;;;;16.70;51.10;;;;;;4096427;28;19937;-35
2022/06/10 08:42:40;;;;;;;;;;;16.70;51.10;;;;;;4097370;28;20568;-35
2022/06/10 08:44:49;;;;;;;;;;;16.70;51.20;;;;;;4096136;28;19933;-36
2022/06/10 08:46:53;;;;;;;;;;;16.70;51.10;;;;;;4094634;28;19940;-36
2022/06/10 08:49:10;;;;;;;;;;;16.70;51.20;;;;;;4092974;28;20020;-37
2022/06/10 08:51:23;;;;;;;;;;;16.70;51.20;;;;;;4094828;28;20177;-37
2022/06/10 08:53:41;;;;;;;;;;;16.70;51.20;;;;;;4094053;28;19929;-36
2022/06/10 08:55:48;;;;;;;;;;;16.70;51.20;;;;;;4095031;28;20333;-37
2022/06/10 08:57:50;;;;;;;;;;;16.70;51.20;;;;;;4097893;28;20252;-36
2022/06/10 08:59:54;;;;;;;;;;;16.70;51.20;;;;;;4101445;28;20216;-36
2022/06/10 09:02:04;;;;;;;;;;;16.70;51.20;;;;;;4105672;28;20414;-35
2022/06/10 09:04:16;;;;;;;;;;;16.60;51.20;;;;;;4104389;28;20865;-35
2022/06/10 09:06:42;;;;;;;;;;;16.60;51.10;;;;;;4088575;28;20144;-36
2022/06/10 09:08:47;;;;;;;;;;;16.60;51.20;;;;;;4067854;28;21080;-38
2022/06/10 09:10:49;;;;;;;;;;;16.60;51.10;;;;;;4092681;28;19929;-36
2022/06/10 09:12:54;;;;;;;;;;;16.60;51.20;;;;;;4086359;28;21416;-36
2022/06/10 09:15:00;;;;;;;;;;;16.60;51.30;;;;;;4082959;28;20343;-36
2022/06/10 09:17:02;;;;;;;;;;;16.60;51.70;;;;;;4078701;28;20433;-36
2022/06/10 09:19:07;;;;;;;;;;;16.60;51.10;;;;;;4091935;28;20019;-36
2022/06/10 09:21:13;;;;;;;;;;;16.60;51.20;;;;;;4089390;28;20703;-36
2022/06/10 09:23:34;;;;;;;;;;;16.60;51.30;;;;;;4066813;28;19929;-35
2022/06/10 09:25:49;;;;;;;;;;;16.60;51.20;;;;;;4092687;28;19998;-36
2022/06/10 09:27:54;;;;;;;;;;;16.60;51.30;;;;;;4088714;28;20660;-38
2022/06/10 09:29:57;;;;;;;;;;;16.50;51.30;;;;;;4085595;28;20100;-36
2022/06/10 09:32:08;;;;;;;;;;;16.50;51.20;;;;;;4085749;28;20036;-37
2022/06/10 09:34:23;;;;;;;;;;;16.50;51.20;;;;;;4083009;28;19930;-38
2022/06/10 09:36:37;;;;;;;;;;;16.50;51.30;;;;;;4083827;28;20629;-38
2022/06/10 09:39:02;;;;;;;;;;;16.50;51.30;;;;;;4085993;28;20024;-37
2022/06/10 09:41:09;;;;;;;;;;;16.50;51.30;;;;;;4083640;28;20450;-36
2022/06/10 09:43:30;;;;;;;;;;;16.50;51.30;;;;;;4084567;28;20507;-37
2022/06/10 09:45:55;;;;;;;;;;;16.50;51.30;;;;;;4091183;28;19933;-38
2022/06/10 09:47:59;;;;;;;;;;;16.50;51.40;;;;;;4069949;28;20046;-39
2022/06/10 09:50:13;;;;;;;;;;;16.80;52.00;;;;;;4086123;28;19925;-38
2022/06/10 09:52:17;;;;;;;;;;;17.50;51.10;;;;;;4081694;28;20824;-38
2022/06/10 09:54:37;;;;;;;;;;;18.20;49.90;;;;;;4093026;28;19960;-38
2022/06/10 09:56:56;;;;;;;;;;;18.90;48.90;;;;;;4085126;28;19929;-37
2022/06/10 09:59:01;;;;;;;;;;;19.50;47.80;;;;;;4085607;28;20004;-38
2022/06/10 10:01:05;;;;;;;;;;;20.10;47.00;;;;;;4084321;28;20028;-38
2022/06/10 10:03:18;;;;;;;;;;;20.60;46.40;;;;;;4093210;28;19929;-38
2022/06/10 10:05:43;;;;;;;;;;;21.00;45.90;;;;;;4083343;28;19983;-37
2022/06/10 10:07:52;;;;;;;;;;;21.40;45.50;;;;;;4082478;28;20034;-37
2022/06/10 10:09:57;;;;;;;;;;;21.80;45.00;;;;;;4096757;28;20023;-39
2022/06/10 10:12:17;;;;;;;;;;;22.10;44.60;;;;;;4100897;28;19925;-38
2022/06/10 10:14:28;;;;;;;;;;;22.40;44.20;;;;;;4094133;28;19932;-38
2022/06/10 10:16:29;;;;;;;;;;;22.80;44.40;;;;;;4095859;28;20015;-40
2022/06/10 10:18:40;;;;;;;;;;;23.00;43.30;;;;;;4098349;28;19933;-38
2022/06/10 10:20:56;;;;;;;;;;;23.30;43.00;;;;;;4105714;28;20012;-38
2022/06/10 10:23:10;;;;;;;;;;;23.50;42.40;;;;;;4104811;28;20437;-39
2022/06/10 10:25:17;;;;;;;;;;;23.70;42.00;;;;;;4100497;28;19928;-42
2022/06/10 10:27:23;;;;;;;;;;;23.90;41.50;;;;;;4105448;28;19932;-45
2022/06/10 10:29:32;;;;;;;;;;;24.20;41.20;;;;;;4098024;28;19929;-39
2022/06/10 10:31:38;;;;;;;;;;;24.30;40.70;;;;;;4094542;28;19936;-40
2022/06/10 10:33:40;;;;;;;;;;;24.50;40.40;;;;;;4095011;28;19925;-39
2022/06/10 10:35:45;;;;;;;;;;;24.60;40.10;;;;;;4098180;28;20048;-40
2022/06/10 10:37:57;;;;;;;;;;;24.80;39.80;;;;;;4099961;28;20059;-39
2022/06/10 10:40:16;;;;;;;;;;;25.00;39.60;;;;;;4105323;28;19929;-37
2022/06/10 10:42:21;;;;;;;;;;;25.10;39.30;;;;;;4093198;28;19937;-37
2022/06/10 10:44:39;;;;;;;;;;;25.10;39.40;;;;;;4103155;28;19925;-40
2022/06/10 10:46:56;;;;;;;;;;;24.80;39.50;;;;;;4105211;28;20114;-40
2022/06/10 10:48:59;;;;;;;;;;;24.40;39.80;;;;;;4098786;28;20239;-42
2022/06/10 10:51:17;;;;;;;;;;;24.00;40.20;;;;;;4106797;28;20367;-42
2022/06/10 10:53:24;;;;;;;;;;;23.60;40.40;;;;;;4102376;28;19955;-38
2022/06/10 10:55:33;;;;;;;;;;;23.30;40.80;;;;;;4110746;28;20307;-48
2022/06/10 10:57:36;;;;;;;;;;;23.10;41.30;;;;;;4107171;28;20034;-44
2022/06/10 10:59:39;;;;;;;;;;;22.80;41.50;;;;;;4100786;28;19929;-42
2022/06/10 11:01:46;;;;;;;;;;;22.60;41.80;;;;;;4099207;28;19926;-48
2022/06/10 11:03:52;;;;;;;;;;;22.40;42.10;;;;;;4100451;28;19925;-45
2022/06/10 11:05:55;;;;;;;;;;;22.20;42.40;;;;;;4101563;28;19991;-41
2022/06/10 11:08:17;;;;;;;;;;;22.10;42.60;;;;;;4084541;28;20805;-46
2022/06/10 11:10:23;;;;;;;;;;;22.00;42.80;;;;;;4095020;28;20506;-44
2022/06/10 11:12:28;;;;;;;;;;;21.80;43.50;;;;;;4072825;28;20634;-45
2022/06/10 11:14:31;;;;;;;;;;;21.70;43.20;;;;;;4079531;28;19932;-44
2022/06/10 11:16:38;;;;;;;;;;;21.60;43.30;;;;;;4084842;28;19930;-45
2022/06/10 11:18:39;;;;;;;;;;;21.50;43.50;;;;;;4084891;28;19929;-43
2022/06/10 11:20:41;;;;;;;;;;;21.40;43.70;;;;;;4071306;28;20482;-44
2022/06/10 11:22:44;;;;;;;;;;;21.20;43.70;;;;;;4064117;28;19941;-44
2022/06/10 11:24:48;;;;;;;;;;;21.20;43.80;;;;;;4084815;28;20443;-45
2022/06/10 11:26:52;;;;;;;;;;;21.10;44.00;;;;;;4094688;28;20616;-46
2022/06/10 11:29:02;;;;;;;;;;;21.00;44.10;;;;;;4086063;28;20460;-48
2022/06/10 11:31:16;;;;;;;;;;;20.90;44.20;;;;;;4088231;28;20014;-45
2022/06/10 11:33:21;;;;;;;;;;;20.80;44.40;;;;;;4086569;28;21037;-43
2022/06/10 11:35:25;;;;;;;;;;;20.70;45.00;;;;;;4081256;28;19929;-44
2022/06/10 11:37:26;;;;;;;;;;;20.60;44.50;;;;;;4084548;28;19941;-39
2022/06/10 11:39:33;;;;;;;;;;;20.60;44.60;;;;;;4090542;28;20360;-43
2022/06/10 11:41:35;;;;;;;;;;;20.50;44.70;;;;;;4090296;28;20627;-46
2022/06/10 11:43:39;;;;;;;;;;;20.40;44.80;;;;;;4073174;28;19983;-44
2022/06/10 11:45:47;;;;;;;;;;;20.30;44.80;;;;;;4082957;28;19930;-45
2022/06/10 11:47:48;;;;;;;;;;;20.20;44.90;;;;;;4089672;28;19937;-41
2022/06/10 11:50:02;;;;;;;;;;;20.20;45.10;;;;;;4066875;28;20167;-45
2022/06/10 11:52:22;;;;;;;;;;;20.10;45.00;;;;;;4085063;28;21586;-42
2022/06/10 11:54:37;;;;;;;;;;;20.00;45.20;;;;;;4089855;28;19925;-43
2022/06/10 12:01:27;;;;;;;;;;;19.80;45.60;;;;;;4087030;28;21124;-43
2022/06/10 12:03:31;;;;;;;;;;;19.80;45.70;;;;;;4081333;28;19928;-41
2022/06/10 12:05:38;;;;;;;;;;;19.70;45.80;;;;;;4087090;28;19929;-42
2022/06/10 12:07:44;;;;;;;;;;;19.60;45.50;;;;;;4091528;28;20496;-43
2022/06/10 12:09:54;;;;;;;;;;;19.50;45.40;;;;;;4098568;28;20100;-46
2022/06/10 12:11:55;;;;;;;;;;;19.40;45.40;;;;;;4096447;28;20519;-41
2022/06/10 12:14:00;;;;;;;;;;;19.30;45.40;;;;;;4089661;28;19925;-40
2022/06/10 12:16:02;;;;;;;;;;;19.20;45.50;;;;;;4087891;28;19929;-41
2022/06/10 12:18:06;;;;;;;;;;;19.10;46.40;;;;;;4095252;28;19936;-43
2022/06/10 12:20:19;;;;;;;;;;;19.10;46.70;;;;;;4091343;28;20347;-43
2022/06/10 12:22:20;;;;;;;;;;;19.10;47.10;;;;;;4094731;28;22016;-42
2022/06/10 12:24:22;;;;;;;;;;;19.00;47.20;;;;;;4088979;28;20067;-41
2022/06/10 12:26:47;;;;;;;;;;;19.00;47.30;;;;;;4091380;28;19935;-42
2022/06/10 12:28:55;;;;;;;;;;;18.90;47.50;;;;;;4086389;28;20304;-41